sensor_id;sensor_type;location;lat;lon;timestamp;P1;durP1;ratioP1;P2;durP2;ratioP2
35897;SDS011;21997;47.118;15.346;2022-08-03T00:01:34;3.30;;;3.00;;
35897;SDS011;21997;47.118;15.346;2022-08-03T00:04:00;3.37;;;3.07;;
35897;SDS011;21997;47.118;15.346;2022-08-03T00:06:25;3.60;;;3.20;;
35897;SDS011;21997;47.118;15.346;2022-08-03T00:08:51;4.40;;;2.77;;
35897;SDS011;21997;47.118;15.346;2022-08-03T00:11:16;3.43;;;3.00;;
35897;SDS011;21997;47.118;15.346;2022-08-03T00:13:42;3.97;;;3.30;;
35897;SDS011;21997;47.118;15.346;2022-08-03T00:16:08;4.97;;;4.23;;
35897;SDS011;21997;47.118;15.346;2022-08-03T00:18:34;4.93;;;2.67;;
35897;SDS011;21997;47.118;15.346;2022-08-03T00:21:00;3.40;;;3.10;;
35897;SDS011;21997;47.118;15.346;2022-08-03T00:23:26;3.67;;;3.03;;
35897;SDS011;21997;47.118;15.346;2022-08-03T00:25:51;4.90;;;3.10;;
35897;SDS011;21997;47.118;15.346;2022-08-03T00:28:17;2.70;;;2.50;;
35897;SDS011;21997;47.118;15.346;2022-08-03T00:30:42;2.80;;;2.60;;
35897;SDS011;21997;47.118;15.346;2022-08-03T00:33:07;3.63;;;3.07;;
35897;SDS011;21997;47.118;15.346;2022-08-03T00:35:34;2.83;;;2.63;;
35897;SDS011;21997;47.118;15.346;2022-08-03T00:38:00;3.30;;;2.87;;
35897;SDS011;21997;47.118;15.346;2022-08-03T00:40:26;3.47;;;2.93;;
35897;SDS011;21997;47.118;15.346;2022-08-03T00:42:52;3.67;;;3.37;;
35897;SDS011;21997;47.118;15.346;2022-08-03T00:45:20;5.50;;;3.03;;
35897;SDS011;21997;47.118;15.346;2022-08-03T00:47:47;3.57;;;3.23;;
35897;SDS011;21997;47.118;15.346;2022-08-03T00:50:13;3.23;;;2.70;;
35897;SDS011;21997;47.118;15.346;2022-08-03T00:52:39;3.70;;;3.20;;
35897;SDS011;21997;47.118;15.346;2022-08-03T00:55:04;3.10;;;2.80;;
35897;SDS011;21997;47.118;15.346;2022-08-03T00:57:30;3.20;;;2.90;;
35897;SDS011;21997;47.118;15.346;2022-08-03T00:59:57;3.57;;;3.03;;
35897;SDS011;21997;47.118;15.346;2022-08-03T01:02:24;4.70;;;3.33;;
35897;SDS011;21997;47.118;15.346;2022-08-03T01:04:51;3.00;;;2.80;;
35897;SDS011;21997;47.118;15.346;2022-08-03T01:07:19;3.90;;;2.97;;
35897;SDS011;21997;47.118;15.346;2022-08-03T01:12:47;4.50;;;3.03;;
35897;SDS011;21997;47.118;15.346;2022-08-03T01:15:43;4.30;;;2.60;;
35897;SDS011;21997;47.118;15.346;2022-08-03T01:18:17;4.80;;;2.87;;
35897;SDS011;21997;47.118;15.346;2022-08-03T01:20:46;3.07;;;2.77;;
35897;SDS011;21997;47.118;15.346;2022-08-03T01:31:09;4.00;;;3.00;;
35897;SDS011;21997;47.118;15.346;2022-08-03T01:33:42;3.60;;;3.30;;
35897;SDS011;21997;47.118;15.346;2022-08-03T01:36:12;7.43;;;3.00;;
35897;SDS011;21997;47.118;15.346;2022-08-03T01:38:43;3.63;;;3.10;;
35897;SDS011;21997;47.118;15.346;2022-08-03T01:41:16;6.20;;;3.47;;
35897;SDS011;21997;47.118;15.346;2022-08-03T01:43:44;4.87;;;3.07;;
35897;SDS011;21997;47.118;15.346;2022-08-03T01:46:13;3.37;;;2.80;;
35897;SDS011;21997;47.118;15.346;2022-08-03T01:48:41;4.70;;;3.00;;
35897;SDS011;21997;47.118;15.346;2022-08-03T01:51:07;3.07;;;2.70;;
35897;SDS011;21997;47.118;15.346;2022-08-03T01:53:33;3.70;;;3.00;;
35897;SDS011;21997;47.118;15.346;2022-08-03T01:55:59;6.17;;;3.17;;
35897;SDS011;21997;47.118;15.346;2022-08-03T01:58:26;4.63;;;3.40;;
35897;SDS011;21997;47.118;15.346;2022-08-03T02:00:52;3.53;;;2.97;;
35897;SDS011;21997;47.118;15.346;2022-08-03T02:03:23;4.33;;;3.00;;
35897;SDS011;21997;47.118;15.346;2022-08-03T02:05:49;4.43;;;3.00;;
35897;SDS011;21997;47.118;15.346;2022-08-03T02:08:15;5.77;;;3.07;;
35897;SDS011;21997;47.118;15.346;2022-08-03T02:10:42;4.10;;;3.33;;
35897;SDS011;21997;47.118;15.346;2022-08-03T02:13:08;3.13;;;2.93;;
35897;SDS011;21997;47.118;15.346;2022-08-03T02:15:35;4.30;;;2.67;;
35897;SDS011;21997;47.118;15.346;2022-08-03T02:18:01;3.47;;;2.60;;
35897;SDS011;21997;47.118;15.346;2022-08-03T02:20:28;4.07;;;2.50;;
35897;SDS011;21997;47.118;15.346;2022-08-03T02:22:56;3.37;;;3.07;;
35897;SDS011;21997;47.118;15.346;2022-08-03T02:25:22;3.93;;;3.27;;
35897;SDS011;21997;47.118;15.346;2022-08-03T02:27:50;3.83;;;3.53;;
35897;SDS011;21997;47.118;15.346;2022-08-03T02:30:17;3.60;;;3.30;;
35897;SDS011;21997;47.118;15.346;2022-08-03T02:32:47;4.10;;;3.10;;
35897;SDS011;21997;47.118;15.346;2022-08-03T02:35:19;5.43;;;3.33;;
35897;SDS011;21997;47.118;15.346;2022-08-03T02:37:49;3.63;;;3.33;;
35897;SDS011;21997;47.118;15.346;2022-08-03T02:40:16;3.40;;;3.10;;
35897;SDS011;21997;47.118;15.346;2022-08-03T02:42:43;5.27;;;3.27;;
35897;SDS011;21997;47.118;15.346;2022-08-03T02:45:09;4.10;;;3.50;;
35897;SDS011;21997;47.118;15.346;2022-08-03T02:47:38;5.17;;;3.20;;
35897;SDS011;21997;47.118;15.346;2022-08-03T02:50:05;3.73;;;3.40;;
35897;SDS011;21997;47.118;15.346;2022-08-03T02:52:33;4.27;;;3.17;;
35897;SDS011;21997;47.118;15.346;2022-08-03T02:54:59;5.00;;;3.50;;
35897;SDS011;21997;47.118;15.346;2022-08-03T02:57:27;3.90;;;3.40;;
35897;SDS011;21997;47.118;15.346;2022-08-03T02:59:54;3.70;;;3.37;;
35897;SDS011;21997;47.118;15.346;2022-08-03T03:02:20;5.57;;;3.30;;
35897;SDS011;21997;47.118;15.346;2022-08-03T03:04:46;3.97;;;3.57;;
35897;SDS011;21997;47.118;15.346;2022-08-03T03:07:14;3.80;;;3.23;;
35897;SDS011;21997;47.118;15.346;2022-08-03T03:09:41;4.07;;;3.57;;
35897;SDS011;21997;47.118;15.346;2022-08-03T03:12:07;3.40;;;3.10;;
35897;SDS011;21997;47.118;15.346;2022-08-03T03:14:35;4.60;;;3.57;;
35897;SDS011;21997;47.118;15.346;2022-08-03T03:17:01;5.27;;;3.50;;
35897;SDS011;21997;47.118;15.346;2022-08-03T03:19:28;5.10;;;3.77;;
35897;SDS011;21997;47.118;15.346;2022-08-03T03:21:54;5.07;;;3.30;;
35897;SDS011;21997;47.118;15.346;2022-08-03T03:24:20;4.80;;;3.07;;
35897;SDS011;21997;47.118;15.346;2022-08-03T03:26:46;4.53;;;3.43;;
35897;SDS011;21997;47.118;15.346;2022-08-03T03:29:12;4.80;;;3.23;;
35897;SDS011;21997;47.118;15.346;2022-08-03T03:31:39;4.67;;;3.23;;
35897;SDS011;21997;47.118;15.346;2022-08-03T03:34:04;4.33;;;3.60;;
35897;SDS011;21997;47.118;15.346;2022-08-03T03:36:30;5.00;;;3.87;;
35897;SDS011;21997;47.118;15.346;2022-08-03T03:38:55;5.30;;;3.83;;
35897;SDS011;21997;47.118;15.346;2022-08-03T03:41:21;5.97;;;3.77;;
35897;SDS011;21997;47.118;15.346;2022-08-03T03:43:47;4.83;;;3.77;;
35897;SDS011;21997;47.118;15.346;2022-08-03T03:46:13;8.70;;;4.47;;
35897;SDS011;21997;47.118;15.346;2022-08-03T03:48:39;5.80;;;3.87;;
35897;SDS011;21997;47.118;15.346;2022-08-03T03:51:04;4.83;;;4.03;;
35897;SDS011;21997;47.118;15.346;2022-08-03T03:53:31;10.13;;;4.77;;
35897;SDS011;21997;47.118;15.346;2022-08-03T03:55:56;6.30;;;4.27;;
35897;SDS011;21997;47.118;15.346;2022-08-03T03:58:22;5.47;;;4.30;;
35897;SDS011;21997;47.118;15.346;2022-08-03T04:00:47;5.50;;;4.33;;
35897;SDS011;21997;47.118;15.346;2022-08-03T04:03:13;5.13;;;4.10;;
35897;SDS011;21997;47.118;15.346;2022-08-03T04:05:39;5.57;;;4.70;;
35897;SDS011;21997;47.118;15.346;2022-08-03T04:08:23;6.47;;;4.87;;
35897;SDS011;21997;47.118;15.346;2022-08-03T04:11:20;5.67;;;4.30;;
35897;SDS011;21997;47.118;15.346;2022-08-03T04:13:49;6.17;;;4.87;;
35897;SDS011;21997;47.118;15.346;2022-08-03T04:16:19;9.17;;;4.40;;
35897;SDS011;21997;47.118;15.346;2022-08-03T04:18:48;7.13;;;4.97;;
35897;SDS011;21997;47.118;15.346;2022-08-03T04:21:17;6.63;;;5.20;;
35897;SDS011;21997;47.118;15.346;2022-08-03T04:23:45;10.43;;;4.60;;
35897;SDS011;21997;47.118;15.346;2022-08-03T04:26:12;6.67;;;4.70;;
35897;SDS011;21997;47.118;15.346;2022-08-03T04:28:40;5.40;;;4.53;;
35897;SDS011;21997;47.118;15.346;2022-08-03T04:31:06;6.20;;;5.23;;
35897;SDS011;21997;47.118;15.346;2022-08-03T04:33:32;6.67;;;5.00;;
35897;SDS011;21997;47.118;15.346;2022-08-03T04:35:59;8.30;;;5.67;;
35897;SDS011;21997;47.118;15.346;2022-08-03T04:38:25;10.07;;;5.60;;
35897;SDS011;21997;47.118;15.346;2022-08-03T04:40:51;9.53;;;5.63;;
35897;SDS011;21997;47.118;15.346;2022-08-03T04:43:17;5.93;;;5.33;;
35897;SDS011;21997;47.118;15.346;2022-08-03T04:45:42;6.27;;;5.27;;
35897;SDS011;21997;47.118;15.346;2022-08-03T04:48:11;5.90;;;5.30;;
35897;SDS011;21997;47.118;15.346;2022-08-03T04:50:38;8.47;;;5.30;;
35897;SDS011;21997;47.118;15.346;2022-08-03T04:53:05;7.67;;;5.57;;
35897;SDS011;21997;47.118;15.346;2022-08-03T04:55:31;7.13;;;5.13;;
35897;SDS011;21997;47.118;15.346;2022-08-03T04:57:58;5.77;;;5.23;;
35897;SDS011;21997;47.118;15.346;2022-08-03T05:00:24;8.50;;;5.33;;
35897;SDS011;21997;47.118;15.346;2022-08-03T05:02:50;8.40;;;5.73;;
35897;SDS011;21997;47.118;15.346;2022-08-03T05:05:15;6.23;;;5.13;;
35897;SDS011;21997;47.118;15.346;2022-08-03T05:07:42;7.47;;;5.17;;
35897;SDS011;21997;47.118;15.346;2022-08-03T05:10:08;8.70;;;5.27;;
35897;SDS011;21997;47.118;15.346;2022-08-03T05:12:35;7.07;;;5.37;;
35897;SDS011;21997;47.118;15.346;2022-08-03T05:15:01;9.73;;;5.00;;
35897;SDS011;21997;47.118;15.346;2022-08-03T05:17:27;10.27;;;4.97;;
35897;SDS011;21997;47.118;15.346;2022-08-03T05:19:52;5.83;;;4.70;;
35897;SDS011;21997;47.118;15.346;2022-08-03T05:22:19;8.47;;;5.30;;
35897;SDS011;21997;47.118;15.346;2022-08-03T05:24:45;6.37;;;4.80;;
35897;SDS011;21997;47.118;15.346;2022-08-03T05:27:10;6.57;;;4.97;;
35897;SDS011;21997;47.118;15.346;2022-08-03T05:29:41;7.90;;;5.40;;
35897;SDS011;21997;47.118;15.346;2022-08-03T05:32:07;6.63;;;5.07;;
35897;SDS011;21997;47.118;15.346;2022-08-03T05:34:32;6.73;;;5.57;;
35897;SDS011;21997;47.118;15.346;2022-08-03T05:36:58;8.57;;;5.10;;
35897;SDS011;21997;47.118;15.346;2022-08-03T05:39:26;6.40;;;5.20;;
35897;SDS011;21997;47.118;15.346;2022-08-03T05:41:51;6.33;;;5.33;;
35897;SDS011;21997;47.118;15.346;2022-08-03T05:44:17;9.67;;;4.93;;
35897;SDS011;21997;47.118;15.346;2022-08-03T05:46:42;6.10;;;5.13;;
35897;SDS011;21997;47.118;15.346;2022-08-03T05:49:07;7.63;;;5.17;;
35897;SDS011;21997;47.118;15.346;2022-08-03T05:51:33;5.87;;;4.63;;
35897;SDS011;21997;47.118;15.346;2022-08-03T05:53:59;7.17;;;5.07;;
35897;SDS011;21997;47.118;15.346;2022-08-03T05:56:24;12.40;;;5.07;;
35897;SDS011;21997;47.118;15.346;2022-08-03T05:58:50;6.20;;;4.77;;
35897;SDS011;21997;47.118;15.346;2022-08-03T06:01:16;11.03;;;4.90;;
35897;SDS011;21997;47.118;15.346;2022-08-03T06:03:42;5.03;;;4.53;;
35897;SDS011;21997;47.118;15.346;2022-08-03T06:06:07;6.50;;;4.33;;
35897;SDS011;21997;47.118;15.346;2022-08-03T06:08:33;7.37;;;5.10;;
35897;SDS011;21997;47.118;15.346;2022-08-03T06:10:58;9.17;;;5.20;;
35897;SDS011;21997;47.118;15.346;2022-08-03T06:13:24;5.83;;;4.80;;
35897;SDS011;21997;47.118;15.346;2022-08-03T06:15:49;8.00;;;5.43;;
35897;SDS011;21997;47.118;15.346;2022-08-03T06:18:14;5.20;;;4.27;;
35897;SDS011;21997;47.118;15.346;2022-08-03T06:20:40;6.03;;;4.63;;
35897;SDS011;21997;47.118;15.346;2022-08-03T06:23:05;5.10;;;4.30;;
35897;SDS011;21997;47.118;15.346;2022-08-03T06:25:31;10.03;;;5.10;;
35897;SDS011;21997;47.118;15.346;2022-08-03T06:27:56;5.10;;;4.60;;
35897;SDS011;21997;47.118;15.346;2022-08-03T06:30:23;5.00;;;4.50;;
35897;SDS011;21997;47.118;15.346;2022-08-03T06:32:49;7.13;;;4.57;;
35897;SDS011;21997;47.118;15.346;2022-08-03T06:35:14;6.00;;;4.53;;
35897;SDS011;21997;47.118;15.346;2022-08-03T06:37:41;7.03;;;5.17;;
35897;SDS011;21997;47.118;15.346;2022-08-03T06:40:12;5.43;;;4.37;;
35897;SDS011;21997;47.118;15.346;2022-08-03T06:42:40;6.27;;;4.33;;
35897;SDS011;21997;47.118;15.346;2022-08-03T06:45:06;6.00;;;4.37;;
35897;SDS011;21997;47.118;15.346;2022-08-03T06:47:33;4.63;;;4.13;;
35897;SDS011;21997;47.118;15.346;2022-08-03T06:49:59;6.63;;;4.17;;
35897;SDS011;21997;47.118;15.346;2022-08-03T06:52:25;7.10;;;4.63;;
35897;SDS011;21997;47.118;15.346;2022-08-03T06:54:50;8.03;;;4.37;;
35897;SDS011;21997;47.118;15.346;2022-08-03T06:57:15;6.67;;;4.60;;
35897;SDS011;21997;47.118;15.346;2022-08-03T06:59:42;5.80;;;5.20;;
35897;SDS011;21997;47.118;15.346;2022-08-03T07:02:08;5.30;;;4.40;;
35897;SDS011;21997;47.118;15.346;2022-08-03T07:04:34;5.93;;;4.67;;
35897;SDS011;21997;47.118;15.346;2022-08-03T07:06:59;7.23;;;4.63;;
35897;SDS011;21997;47.118;15.346;2022-08-03T07:09:25;8.17;;;4.60;;
35897;SDS011;21997;47.118;15.346;2022-08-03T07:11:50;4.50;;;4.10;;
35897;SDS011;21997;47.118;15.346;2022-08-03T07:14:16;4.70;;;4.30;;
35897;SDS011;21997;47.118;15.346;2022-08-03T07:16:42;4.90;;;4.40;;
35897;SDS011;21997;47.118;15.346;2022-08-03T07:19:07;5.93;;;4.53;;
35897;SDS011;21997;47.118;15.346;2022-08-03T07:21:32;6.40;;;4.17;;
35897;SDS011;21997;47.118;15.346;2022-08-03T07:23:58;6.07;;;4.33;;
35897;SDS011;21997;47.118;15.346;2022-08-03T07:26:23;5.80;;;4.23;;
35897;SDS011;21997;47.118;15.346;2022-08-03T07:28:49;5.93;;;4.90;;
35897;SDS011;21997;47.118;15.346;2022-08-03T07:31:14;6.37;;;4.23;;
35897;SDS011;21997;47.118;15.346;2022-08-03T07:33:39;6.43;;;4.03;;
35897;SDS011;21997;47.118;15.346;2022-08-03T07:36:05;4.73;;;3.80;;
35897;SDS011;21997;47.118;15.346;2022-08-03T07:38:33;3.90;;;3.60;;
35897;SDS011;21997;47.118;15.346;2022-08-03T07:40:59;3.80;;;3.20;;
35897;SDS011;21997;47.118;15.346;2022-08-03T07:43:25;4.30;;;3.42;;
35897;SDS011;21997;47.118;15.346;2022-08-03T07:45:50;5.75;;;3.42;;
35897;SDS011;21997;47.118;15.346;2022-08-03T07:48:15;4.47;;;2.92;;
35897;SDS011;21997;47.118;15.346;2022-08-03T07:50:41;3.45;;;3.10;;
35897;SDS011;21997;47.118;15.346;2022-08-03T07:53:06;4.82;;;2.45;;
35897;SDS011;21997;47.118;15.346;2022-08-03T07:55:32;2.72;;;1.83;;
35897;SDS011;21997;47.118;15.346;2022-08-03T07:58:07;3.00;;;1.95;;
35897;SDS011;21997;47.118;15.346;2022-08-03T08:00:36;3.35;;;2.10;;
35897;SDS011;21997;47.118;15.346;2022-08-03T08:03:02;3.28;;;1.90;;
35897;SDS011;21997;47.118;15.346;2022-08-03T08:05:28;5.53;;;1.83;;
35897;SDS011;21997;47.118;15.346;2022-08-03T08:07:54;2.15;;;1.85;;
35897;SDS011;21997;47.118;15.346;2022-08-03T08:10:19;1.60;;;1.50;;
35897;SDS011;21997;47.118;15.346;2022-08-03T08:12:45;3.08;;;1.85;;
35897;SDS011;21997;47.118;15.346;2022-08-03T08:15:10;1.75;;;1.65;;
35897;SDS011;21997;47.118;15.346;2022-08-03T08:17:43;2.47;;;2.28;;
35897;SDS011;21997;47.118;15.346;2022-08-03T08:20:10;3.05;;;2.00;;
35897;SDS011;21997;47.118;15.346;2022-08-03T08:22:36;5.13;;;1.77;;
35897;SDS011;21997;47.118;15.346;2022-08-03T08:25:02;2.83;;;2.25;;
35897;SDS011;21997;47.118;15.346;2022-08-03T08:27:28;1.30;;;1.20;;
35897;SDS011;21997;47.118;15.346;2022-08-03T08:29:53;1.77;;;1.65;;
35897;SDS011;21997;47.118;15.346;2022-08-03T08:32:18;1.63;;;1.52;;
35897;SDS011;21997;47.118;15.346;2022-08-03T08:34:44;1.48;;;1.38;;
35897;SDS011;21997;47.118;15.346;2022-08-03T08:37:09;4.97;;;1.65;;
35897;SDS011;21997;47.118;15.346;2022-08-03T08:39:35;1.42;;;1.33;;
35897;SDS011;21997;47.118;15.346;2022-08-03T08:42:01;1.75;;;1.65;;
35897;SDS011;21997;47.118;15.346;2022-08-03T08:44:26;2.63;;;1.77;;
35897;SDS011;21997;47.118;15.346;2022-08-03T08:46:53;1.70;;;1.58;;
35897;SDS011;21997;47.118;15.346;2022-08-03T08:49:20;2.00;;;1.33;;
35897;SDS011;21997;47.118;15.346;2022-08-03T08:51:48;1.70;;;1.45;;
35897;SDS011;21997;47.118;15.346;2022-08-03T08:54:16;1.20;;;1.10;;
35897;SDS011;21997;47.118;15.346;2022-08-03T08:56:42;1.40;;;1.30;;
35897;SDS011;21997;47.118;15.346;2022-08-03T08:59:08;3.20;;;1.27;;
35897;SDS011;21997;47.118;15.346;2022-08-03T09:01:34;1.75;;;1.33;;
35897;SDS011;21997;47.118;15.346;2022-08-03T09:03:59;1.38;;;1.27;;
35897;SDS011;21997;47.118;15.346;2022-08-03T09:06:25;1.52;;;1.42;;
35897;SDS011;21997;47.118;15.346;2022-08-03T09:08:51;1.48;;;1.38;;
35897;SDS011;21997;47.118;15.346;2022-08-03T09:11:19;1.52;;;1.42;;
35897;SDS011;21997;47.118;15.346;2022-08-03T09:13:45;1.77;;;1.25;;
35897;SDS011;21997;47.118;15.346;2022-08-03T09:16:12;1.05;;;1.05;;
35897;SDS011;21997;47.118;15.346;2022-08-03T09:18:41;1.10;;;1.00;;
35897;SDS011;21997;47.118;15.346;2022-08-03T09:21:11;1.25;;;1.15;;
35897;SDS011;21997;47.118;15.346;2022-08-03T09:23:44;1.30;;;1.20;;
35897;SDS011;21997;47.118;15.346;2022-08-03T09:26:23;9.13;;;2.10;;
35897;SDS011;21997;47.118;15.346;2022-08-03T09:34:02;1.23;;;1.10;;
35897;SDS011;21997;47.118;15.346;2022-08-03T09:36:32;2.85;;;1.48;;
35897;SDS011;21997;47.118;15.346;2022-08-03T09:39:02;1.48;;;1.30;;
35897;SDS011;21997;47.118;15.346;2022-08-03T09:41:30;1.63;;;1.10;;
35897;SDS011;21997;47.118;15.346;2022-08-03T09:43:55;2.10;;;1.20;;
35897;SDS011;21997;47.118;15.346;2022-08-03T09:46:21;1.60;;;1.45;;
35897;SDS011;21997;47.118;15.346;2022-08-03T09:48:46;1.45;;;1.35;;
35897;SDS011;21997;47.118;15.346;2022-08-03T09:51:12;1.52;;;1.42;;
35897;SDS011;21997;47.118;15.346;2022-08-03T09:53:43;1.40;;;1.30;;
35897;SDS011;21997;47.118;15.346;2022-08-03T09:56:09;1.73;;;1.63;;
35897;SDS011;21997;47.118;15.346;2022-08-03T09:58:38;2.53;;;1.27;;
35897;SDS011;21997;47.118;15.346;2022-08-03T10:01:10;3.13;;;1.30;;
35897;SDS011;21997;47.118;15.346;2022-08-03T10:03:37;2.03;;;1.40;;
35897;SDS011;21997;47.118;15.346;2022-08-03T10:06:17;1.30;;;1.20;;
35897;SDS011;21997;47.118;15.346;2022-08-03T10:08:43;1.20;;;1.10;;
35897;SDS011;21997;47.118;15.346;2022-08-03T10:11:09;2.83;;;1.45;;
35897;SDS011;21997;47.118;15.346;2022-08-03T10:13:35;1.20;;;1.17;;
35897;SDS011;21997;47.118;15.346;2022-08-03T10:16:00;1.60;;;1.25;;
35897;SDS011;21997;47.118;15.346;2022-08-03T10:18:29;1.10;;;1.00;;
35897;SDS011;21997;47.118;15.346;2022-08-03T10:20:58;1.00;;;1.00;;
35897;SDS011;21997;47.118;15.346;2022-08-03T10:23:28;1.50;;;1.40;;
35897;SDS011;21997;47.118;15.346;2022-08-03T10:26:00;1.30;;;1.20;;
35897;SDS011;21997;47.118;15.346;2022-08-03T10:28:26;1.88;;;1.60;;
35897;SDS011;21997;47.118;15.346;2022-08-03T10:30:59;1.38;;;1.30;;
35897;SDS011;21997;47.118;15.346;2022-08-03T10:33:26;1.33;;;1.05;;
35897;SDS011;21997;47.118;15.346;2022-08-03T10:35:56;3.63;;;1.40;;
35897;SDS011;21997;47.118;15.346;2022-08-03T10:38:28;1.90;;;1.45;;
35897;SDS011;21997;47.118;15.346;2022-08-03T10:40:54;3.47;;;1.20;;
35897;SDS011;21997;47.118;15.346;2022-08-03T10:43:27;2.83;;;1.13;;
35897;SDS011;21997;47.118;15.346;2022-08-03T10:46:02;1.55;;;1.10;;
35897;SDS011;21997;47.118;15.346;2022-08-03T10:48:27;1.90;;;1.17;;
35897;SDS011;21997;47.118;15.346;2022-08-03T10:50:53;1.30;;;1.20;;
35897;SDS011;21997;47.118;15.346;2022-08-03T10:53:35;4.25;;;1.50;;
35897;SDS011;21997;47.118;15.346;2022-08-03T10:56:01;2.28;;;1.35;;
35897;SDS011;21997;47.118;15.346;2022-08-03T10:58:46;1.00;;;1.00;;
35897;SDS011;21997;47.118;15.346;2022-08-03T11:01:15;2.15;;;1.08;;
35897;SDS011;21997;47.118;15.346;2022-08-03T11:06:17;1.10;;;1.00;;
35897;SDS011;21997;47.118;15.346;2022-08-03T11:08:47;1.08;;;1.00;;
35897;SDS011;21997;47.118;15.346;2022-08-03T11:16:22;1.05;;;1.05;;
35897;SDS011;21997;47.118;15.346;2022-08-03T11:18:58;1.73;;;1.00;;
35897;SDS011;21997;47.118;15.346;2022-08-03T11:37:35;1.40;;;1.30;;
35897;SDS011;21997;47.118;15.346;2022-08-03T11:40:00;1.40;;;1.20;;
35897;SDS011;21997;47.118;15.346;2022-08-03T11:44:56;1.30;;;1.20;;
35897;SDS011;21997;47.118;15.346;2022-08-03T11:47:24;1.17;;;1.08;;
35897;SDS011;21997;47.118;15.346;2022-08-03T11:49:52;1.95;;;1.27;;
35897;SDS011;21997;47.118;15.346;2022-08-03T11:52:19;1.05;;;1.00;;
35897;SDS011;21997;47.118;15.346;2022-08-03T11:54:44;0.93;;;0.93;;
35897;SDS011;21997;47.118;15.346;2022-08-03T11:57:10;1.50;;;1.08;;
35897;SDS011;21997;47.118;15.346;2022-08-03T11:59:36;1.05;;;0.90;;
35897;SDS011;21997;47.118;15.346;2022-08-03T12:02:08;1.08;;;0.98;;
35897;SDS011;21997;47.118;15.346;2022-08-03T12:07:27;1.20;;;1.10;;
35897;SDS011;21997;47.118;15.346;2022-08-03T12:10:10;1.25;;;1.15;;
35897;SDS011;21997;47.118;15.346;2022-08-03T12:12:39;1.00;;;0.80;;
35897;SDS011;21997;47.118;15.346;2022-08-03T12:15:05;0.88;;;0.88;;
35897;SDS011;21997;47.118;15.346;2022-08-03T12:17:38;1.00;;;0.82;;
35897;SDS011;21997;47.118;15.346;2022-08-03T12:20:06;1.05;;;0.93;;
35897;SDS011;21997;47.118;15.346;2022-08-03T12:22:38;3.67;;;0.90;;
35897;SDS011;21997;47.118;15.346;2022-08-03T12:25:06;1.30;;;0.90;;
35897;SDS011;21997;47.118;15.346;2022-08-03T12:27:32;2.05;;;1.15;;
35897;SDS011;21997;47.118;15.346;2022-08-03T12:29:58;1.23;;;1.13;;
35897;SDS011;21997;47.118;15.346;2022-08-03T12:32:25;0.65;;;0.65;;
35897;SDS011;21997;47.118;15.346;2022-08-03T12:34:52;1.00;;;0.80;;
35897;SDS011;21997;47.118;15.346;2022-08-03T12:37:18;1.00;;;0.95;;
35897;SDS011;21997;47.118;15.346;2022-08-03T12:39:48;0.60;;;0.60;;
35897;SDS011;21997;47.118;15.346;2022-08-03T12:42:17;0.90;;;0.90;;
35897;SDS011;21997;47.118;15.346;2022-08-03T12:44:42;2.10;;;1.02;;
35897;SDS011;21997;47.118;15.346;2022-08-03T12:47:09;1.20;;;1.10;;
35897;SDS011;21997;47.118;15.346;2022-08-03T12:49:45;0.98;;;0.88;;
35897;SDS011;21997;47.118;15.346;2022-08-03T12:52:15;0.90;;;0.90;;
35897;SDS011;21997;47.118;15.346;2022-08-03T12:54:41;4.55;;;1.38;;
35897;SDS011;21997;47.118;15.346;2022-08-03T12:57:10;2.72;;;1.00;;
35897;SDS011;21997;47.118;15.346;2022-08-03T12:59:37;0.82;;;0.82;;
35897;SDS011;21997;47.118;15.346;2022-08-03T13:02:20;0.98;;;0.90;;
35897;SDS011;21997;47.118;15.346;2022-08-03T13:04:48;1.98;;;1.00;;
35897;SDS011;21997;47.118;15.346;2022-08-03T13:07:14;1.20;;;1.10;;
35897;SDS011;21997;47.118;15.346;2022-08-03T13:09:53;1.30;;;1.20;;
35897;SDS011;21997;47.118;15.346;2022-08-03T13:12:21;2.10;;;0.90;;
35897;SDS011;21997;47.118;15.346;2022-08-03T13:14:49;3.97;;;1.27;;
35897;SDS011;21997;47.118;15.346;2022-08-03T13:17:16;1.08;;;1.00;;
35897;SDS011;21997;47.118;15.346;2022-08-03T13:19:42;2.00;;;1.08;;
35897;SDS011;21997;47.118;15.346;2022-08-03T13:24:47;1.08;;;0.98;;
35897;SDS011;21997;47.118;15.346;2022-08-03T13:27:17;0.80;;;0.80;;
35897;SDS011;21997;47.118;15.346;2022-08-03T13:29:43;1.20;;;1.02;;
35897;SDS011;21997;47.118;15.346;2022-08-03T13:32:08;1.00;;;1.00;;
35897;SDS011;21997;47.118;15.346;2022-08-03T13:34:34;1.27;;;1.17;;
35897;SDS011;21997;47.118;15.346;2022-08-03T13:37:00;1.13;;;1.00;;
35897;SDS011;21997;47.118;15.346;2022-08-03T13:39:26;1.38;;;1.17;;
35897;SDS011;21997;47.118;15.346;2022-08-03T13:41:51;1.10;;;1.10;;
35897;SDS011;21997;47.118;15.346;2022-08-03T13:44:17;1.23;;;1.13;;
35897;SDS011;21997;47.118;15.346;2022-08-03T13:46:43;0.60;;;0.60;;
35897;SDS011;21997;47.118;15.346;2022-08-03T13:49:09;3.25;;;0.90;;
35897;SDS011;21997;47.118;15.346;2022-08-03T13:51:34;1.35;;;1.20;;
35897;SDS011;21997;47.118;15.346;2022-08-03T13:53:59;1.40;;;1.17;;
35897;SDS011;21997;47.118;15.346;2022-08-03T13:56:25;1.20;;;1.10;;
35897;SDS011;21997;47.118;15.346;2022-08-03T13:58:51;1.27;;;1.02;;
35897;SDS011;21997;47.118;15.346;2022-08-03T14:01:16;3.15;;;1.10;;
35897;SDS011;21997;47.118;15.346;2022-08-03T14:03:42;1.00;;;1.00;;
35897;SDS011;21997;47.118;15.346;2022-08-03T14:06:07;2.72;;;0.95;;
35897;SDS011;21997;47.118;15.346;2022-08-03T14:08:33;1.10;;;1.00;;
35897;SDS011;21997;47.118;15.346;2022-08-03T14:10:59;2.15;;;1.40;;
35897;SDS011;21997;47.118;15.346;2022-08-03T14:13:24;1.10;;;1.00;;
35897;SDS011;21997;47.118;15.346;2022-08-03T14:15:50;1.20;;;1.10;;
35897;SDS011;21997;47.118;15.346;2022-08-03T14:18:15;1.13;;;1.02;;
35897;SDS011;21997;47.118;15.346;2022-08-03T14:20:42;1.27;;;1.10;;
35897;SDS011;21997;47.118;15.346;2022-08-03T14:23:08;1.20;;;1.10;;
35897;SDS011;21997;47.118;15.346;2022-08-03T14:25:34;1.30;;;1.20;;
35897;SDS011;21997;47.118;15.346;2022-08-03T14:28:00;0.90;;;0.90;;
35897;SDS011;21997;47.118;15.346;2022-08-03T14:30:25;3.58;;;1.52;;
35897;SDS011;21997;47.118;15.346;2022-08-03T14:32:50;1.38;;;1.27;;
35897;SDS011;21997;47.118;15.346;2022-08-03T14:35:16;1.50;;;1.30;;
35897;SDS011;21997;47.118;15.346;2022-08-03T14:37:41;3.45;;;1.00;;
35897;SDS011;21997;47.118;15.346;2022-08-03T14:40:06;1.30;;;1.20;;
35897;SDS011;21997;47.118;15.346;2022-08-03T14:42:32;1.30;;;1.20;;
35897;SDS011;21997;47.118;15.346;2022-08-03T14:44:57;0.93;;;0.88;;
35897;SDS011;21997;47.118;15.346;2022-08-03T14:47:23;1.52;;;1.15;;
35897;SDS011;21997;47.118;15.346;2022-08-03T14:49:48;1.63;;;1.50;;
35897;SDS011;21997;47.118;15.346;2022-08-03T14:52:14;1.17;;;1.08;;
35897;SDS011;21997;47.118;15.346;2022-08-03T14:54:39;1.40;;;1.00;;
35897;SDS011;21997;47.118;15.346;2022-08-03T14:57:05;1.20;;;1.13;;
35897;SDS011;21997;47.118;15.346;2022-08-03T14:59:30;1.90;;;0.95;;
35897;SDS011;21997;47.118;15.346;2022-08-03T15:01:55;1.00;;;1.00;;
35897;SDS011;21997;47.118;15.346;2022-08-03T15:04:21;1.70;;;1.45;;
35897;SDS011;21997;47.118;15.346;2022-08-03T15:06:46;1.20;;;1.10;;
35897;SDS011;21997;47.118;15.346;2022-08-03T15:09:12;1.05;;;1.02;;
35897;SDS011;21997;47.118;15.346;2022-08-03T15:11:37;1.45;;;1.23;;
35897;SDS011;21997;47.118;15.346;2022-08-03T15:14:02;1.25;;;1.15;;
35897;SDS011;21997;47.118;15.346;2022-08-03T15:16:28;1.17;;;1.08;;
35897;SDS011;21997;47.118;15.346;2022-08-03T15:18:53;2.95;;;1.33;;
35897;SDS011;21997;47.118;15.346;2022-08-03T15:21:19;2.45;;;1.20;;